sensor_id;sensor_type;location;lat;lon;timestamp;P1;durP1;ratioP1;P2;durP2;ratioP2
59649;SDS011;46162;57.568;25.814;2024-03-07T00:00:16;12.43;;;3.03;;
59649;SDS011;46162;57.568;25.814;2024-03-07T00:02:46;12.77;;;3.28;;
59649;SDS011;46162;57.568;25.814;2024-03-07T00:05:16;9.07;;;2.33;;
59649;SDS011;46162;57.568;25.814;2024-03-07T00:07:46;9.77;;;2.65;;
59649;SDS011;46162;57.568;25.814;2024-03-07T00:10:16;9.88;;;3.28;;
59649;SDS011;46162;57.568;25.814;2024-03-07T00:12:44;8.20;;;2.33;;
59649;SDS011;46162;57.568;25.814;2024-03-07T00:15:16;10.32;;;2.58;;
59649;SDS011;46162;57.568;25.814;2024-03-07T00:33:45;9.80;;;3.05;;
59649;SDS011;46162;57.568;25.814;2024-03-07T00:36:33;8.23;;;2.45;;
59649;SDS011;46162;57.568;25.814;2024-03-07T00:39:02;7.57;;;2.78;;
59649;SDS011;46162;57.568;25.814;2024-03-07T00:41:31;13.00;;;3.28;;
59649;SDS011;46162;57.568;25.814;2024-03-07T00:43:59;11.05;;;3.35;;
59649;SDS011;46162;57.568;25.814;2024-03-07T00:46:28;9.48;;;2.67;;
59649;SDS011;46162;57.568;25.814;2024-03-07T00:48:59;11.63;;;3.42;;
59649;SDS011;46162;57.568;25.814;2024-03-07T00:51:28;10.25;;;3.17;;
59649;SDS011;46162;57.568;25.814;2024-03-07T00:53:56;10.52;;;3.50;;
59649;SDS011;46162;57.568;25.814;2024-03-07T00:56:26;10.38;;;2.35;;
59649;SDS011;46162;57.568;25.814;2024-03-07T00:58:55;9.82;;;2.40;;
59649;SDS011;46162;57.568;25.814;2024-03-07T01:01:24;12.75;;;2.70;;
59649;SDS011;46162;57.568;25.814;2024-03-07T01:03:53;7.90;;;2.22;;
59649;SDS011;46162;57.568;25.814;2024-03-07T01:06:23;8.82;;;2.60;;
59649;SDS011;46162;57.568;25.814;2024-03-07T01:08:52;7.72;;;2.33;;
59649;SDS011;46162;57.568;25.814;2024-03-07T01:11:20;8.95;;;2.80;;
59649;SDS011;46162;57.568;25.814;2024-03-07T01:13:50;7.65;;;2.47;;
59649;SDS011;46162;57.568;25.814;2024-03-07T01:16:18;7.72;;;2.22;;
59649;SDS011;46162;57.568;25.814;2024-03-07T01:18:47;14.10;;;4.45;;
59649;SDS011;46162;57.568;25.814;2024-03-07T01:21:16;15.15;;;5.38;;
59649;SDS011;46162;57.568;25.814;2024-03-07T01:23:47;15.18;;;4.90;;
59649;SDS011;46162;57.568;25.814;2024-03-07T01:26:16;12.07;;;4.47;;
59649;SDS011;46162;57.568;25.814;2024-03-07T01:28:44;15.77;;;4.97;;
59649;SDS011;46162;57.568;25.814;2024-03-07T01:31:13;12.23;;;4.28;;
59649;SDS011;46162;57.568;25.814;2024-03-07T01:33:41;12.60;;;4.28;;
59649;SDS011;46162;57.568;25.814;2024-03-07T01:36:10;16.00;;;4.65;;
59649;SDS011;46162;57.568;25.814;2024-03-07T01:38:38;11.95;;;4.15;;
59649;SDS011;46162;57.568;25.814;2024-03-07T01:41:09;12.90;;;4.63;;
59649;SDS011;46162;57.568;25.814;2024-03-07T01:43:37;15.85;;;4.75;;
59649;SDS011;46162;57.568;25.814;2024-03-07T01:46:06;12.63;;;4.80;;
59649;SDS011;46162;57.568;25.814;2024-03-07T01:48:35;13.75;;;5.07;;
59649;SDS011;46162;57.568;25.814;2024-03-07T01:51:04;13.10;;;4.93;;
59649;SDS011;46162;57.568;25.814;2024-03-07T01:53:33;14.63;;;4.93;;
59649;SDS011;46162;57.568;25.814;2024-03-07T01:56:03;12.38;;;5.68;;
59649;SDS011;46162;57.568;25.814;2024-03-07T01:58:34;14.05;;;5.47;;
59649;SDS011;46162;57.568;25.814;2024-03-07T02:01:04;15.57;;;5.55;;
59649;SDS011;46162;57.568;25.814;2024-03-07T02:03:33;13.75;;;5.57;;
59649;SDS011;46162;57.568;25.814;2024-03-07T02:06:03;14.23;;;5.20;;
59649;SDS011;46162;57.568;25.814;2024-03-07T02:08:32;14.60;;;5.93;;
59649;SDS011;46162;57.568;25.814;2024-03-07T02:11:01;17.25;;;6.18;;
59649;SDS011;46162;57.568;25.814;2024-03-07T02:13:30;16.55;;;6.00;;
59649;SDS011;46162;57.568;25.814;2024-03-07T02:16:01;17.02;;;6.28;;
59649;SDS011;46162;57.568;25.814;2024-03-07T02:18:29;16.07;;;5.77;;
59649;SDS011;46162;57.568;25.814;2024-03-07T02:21:00;16.65;;;6.68;;
59649;SDS011;46162;57.568;25.814;2024-03-07T02:23:28;17.73;;;5.68;;
59649;SDS011;46162;57.568;25.814;2024-03-07T02:25:58;15.70;;;5.88;;
59649;SDS011;46162;57.568;25.814;2024-03-07T02:28:26;15.00;;;5.75;;
59649;SDS011;46162;57.568;25.814;2024-03-07T02:30:55;17.17;;;6.28;;
59649;SDS011;46162;57.568;25.814;2024-03-07T02:33:24;14.32;;;5.47;;
59649;SDS011;46162;57.568;25.814;2024-03-07T02:35:52;14.30;;;5.63;;
59649;SDS011;46162;57.568;25.814;2024-03-07T02:38:23;12.55;;;5.60;;
59649;SDS011;46162;57.568;25.814;2024-03-07T02:40:51;12.70;;;5.15;;
59649;SDS011;46162;57.568;25.814;2024-03-07T02:43:20;14.30;;;5.13;;
59649;SDS011;46162;57.568;25.814;2024-03-07T02:45:49;14.77;;;5.30;;
59649;SDS011;46162;57.568;25.814;2024-03-07T02:48:17;13.93;;;5.00;;
59649;SDS011;46162;57.568;25.814;2024-03-07T02:50:46;13.90;;;5.07;;
59649;SDS011;46162;57.568;25.814;2024-03-07T02:53:15;17.77;;;5.80;;
59649;SDS011;46162;57.568;25.814;2024-03-07T02:55:46;15.25;;;5.57;;
59649;SDS011;46162;57.568;25.814;2024-03-07T02:58:14;12.85;;;5.38;;
59649;SDS011;46162;57.568;25.814;2024-03-07T03:00:43;14.05;;;6.05;;
59649;SDS011;46162;57.568;25.814;2024-03-07T03:03:11;16.52;;;5.65;;
59649;SDS011;46162;57.568;25.814;2024-03-07T03:05:40;14.45;;;5.78;;
59649;SDS011;46162;57.568;25.814;2024-03-07T03:08:09;19.45;;;6.25;;
59649;SDS011;46162;57.568;25.814;2024-03-07T03:10:37;15.90;;;5.75;;
59649;SDS011;46162;57.568;25.814;2024-03-07T03:13:06;13.50;;;4.90;;
59649;SDS011;46162;57.568;25.814;2024-03-07T03:15:35;16.98;;;6.22;;
59649;SDS011;46162;57.568;25.814;2024-03-07T03:18:04;17.33;;;5.80;;
59649;SDS011;46162;57.568;25.814;2024-03-07T03:20:33;17.80;;;6.03;;
59649;SDS011;46162;57.568;25.814;2024-03-07T03:23:06;15.88;;;5.35;;
59649;SDS011;46162;57.568;25.814;2024-03-07T03:25:47;12.85;;;5.40;;
59649;SDS011;46162;57.568;25.814;2024-03-07T03:28:18;14.07;;;5.72;;
59649;SDS011;46162;57.568;25.814;2024-03-07T03:30:48;15.50;;;6.07;;
59649;SDS011;46162;57.568;25.814;2024-03-07T03:33:17;12.93;;;5.35;;
59649;SDS011;46162;57.568;25.814;2024-03-07T03:35:46;9.63;;;4.88;;
59649;SDS011;46162;57.568;25.814;2024-03-07T03:38:15;15.48;;;5.95;;
59649;SDS011;46162;57.568;25.814;2024-03-07T03:40:45;15.10;;;4.50;;
59649;SDS011;46162;57.568;25.814;2024-03-07T03:43:13;14.48;;;4.70;;
59649;SDS011;46162;57.568;25.814;2024-03-07T03:45:44;12.23;;;5.00;;
59649;SDS011;46162;57.568;25.814;2024-03-07T03:48:14;13.88;;;4.72;;
59649;SDS011;46162;57.568;25.814;2024-03-07T03:50:43;13.48;;;4.55;;
59649;SDS011;46162;57.568;25.814;2024-03-07T03:53:13;12.93;;;5.25;;
59649;SDS011;46162;57.568;25.814;2024-03-07T03:55:42;18.05;;;4.85;;
59649;SDS011;46162;57.568;25.814;2024-03-07T03:58:12;13.38;;;5.18;;
59649;SDS011;46162;57.568;25.814;2024-03-07T04:00:41;13.63;;;4.40;;
59649;SDS011;46162;57.568;25.814;2024-03-07T04:03:11;9.43;;;3.97;;
59649;SDS011;46162;57.568;25.814;2024-03-07T04:05:40;11.35;;;3.95;;
59649;SDS011;46162;57.568;25.814;2024-03-07T04:08:09;10.77;;;3.83;;
59649;SDS011;46162;57.568;25.814;2024-03-07T04:10:41;11.75;;;3.33;;
59649;SDS011;46162;57.568;25.814;2024-03-07T04:13:10;11.40;;;4.28;;
59649;SDS011;46162;57.568;25.814;2024-03-07T04:15:42;12.00;;;4.53;;
59649;SDS011;46162;57.568;25.814;2024-03-07T04:18:12;9.82;;;3.80;;
59649;SDS011;46162;57.568;25.814;2024-03-07T04:20:41;10.10;;;3.70;;
59649;SDS011;46162;57.568;25.814;2024-03-07T04:23:11;12.30;;;3.92;;
59649;SDS011;46162;57.568;25.814;2024-03-07T04:25:40;11.38;;;3.42;;
59649;SDS011;46162;57.568;25.814;2024-03-07T04:28:09;13.00;;;3.60;;
59649;SDS011;46162;57.568;25.814;2024-03-07T04:30:39;9.93;;;3.78;;
59649;SDS011;46162;57.568;25.814;2024-03-07T04:33:12;8.85;;;3.38;;
59649;SDS011;46162;57.568;25.814;2024-03-07T04:35:42;10.95;;;3.72;;
59649;SDS011;46162;57.568;25.814;2024-03-07T04:38:11;9.40;;;3.40;;
59649;SDS011;46162;57.568;25.814;2024-03-07T04:40:42;13.63;;;3.30;;
59649;SDS011;46162;57.568;25.814;2024-03-07T04:43:11;10.43;;;3.88;;
59649;SDS011;46162;57.568;25.814;2024-03-07T04:45:40;11.65;;;4.05;;
59649;SDS011;46162;57.568;25.814;2024-03-07T04:48:09;11.68;;;3.42;;
59649;SDS011;46162;57.568;25.814;2024-03-07T04:50:40;10.32;;;3.33;;
59649;SDS011;46162;57.568;25.814;2024-03-07T04:53:09;11.85;;;3.53;;
59649;SDS011;46162;57.568;25.814;2024-03-07T04:55:38;13.25;;;3.35;;
59649;SDS011;46162;57.568;25.814;2024-03-07T04:58:07;15.07;;;4.53;;
59649;SDS011;46162;57.568;25.814;2024-03-07T05:00:36;13.05;;;3.33;;
59649;SDS011;46162;57.568;25.814;2024-03-07T05:03:05;10.57;;;3.55;;
59649;SDS011;46162;57.568;25.814;2024-03-07T05:05:34;10.65;;;3.47;;
59649;SDS011;46162;57.568;25.814;2024-03-07T05:08:05;11.48;;;3.47;;
59649;SDS011;46162;57.568;25.814;2024-03-07T05:10:34;8.15;;;2.72;;
59649;SDS011;46162;57.568;25.814;2024-03-07T05:13:03;11.27;;;4.03;;
59649;SDS011;46162;57.568;25.814;2024-03-07T05:15:36;12.80;;;3.55;;
59649;SDS011;46162;57.568;25.814;2024-03-07T05:18:07;12.75;;;3.78;;
59649;SDS011;46162;57.568;25.814;2024-03-07T05:20:40;11.20;;;3.13;;
59649;SDS011;46162;57.568;25.814;2024-03-07T05:23:13;9.15;;;3.28;;
59649;SDS011;46162;57.568;25.814;2024-03-07T05:25:45;12.63;;;3.47;;
59649;SDS011;46162;57.568;25.814;2024-03-07T05:28:16;15.02;;;3.88;;
59649;SDS011;46162;57.568;25.814;2024-03-07T05:30:49;9.23;;;3.55;;
59649;SDS011;46162;57.568;25.814;2024-03-07T05:33:18;10.25;;;3.83;;
59649;SDS011;46162;57.568;25.814;2024-03-07T05:38:31;13.25;;;2.88;;
59649;SDS011;46162;57.568;25.814;2024-03-07T05:41:00;12.35;;;3.65;;
59649;SDS011;46162;57.568;25.814;2024-03-07T05:43:36;12.05;;;3.75;;
59649;SDS011;46162;57.568;25.814;2024-03-07T05:46:08;8.85;;;3.10;;
59649;SDS011;46162;57.568;25.814;2024-03-07T05:48:44;9.77;;;3.63;;
59649;SDS011;46162;57.568;25.814;2024-03-07T05:51:19;12.30;;;4.13;;
59649;SDS011;46162;57.568;25.814;2024-03-07T05:54:01;9.20;;;3.22;;
59649;SDS011;46162;57.568;25.814;2024-03-07T05:56:39;11.77;;;3.53;;
59649;SDS011;46162;57.568;25.814;2024-03-07T05:59:11;11.43;;;3.35;;
59649;SDS011;46162;57.568;25.814;2024-03-07T06:01:45;11.63;;;3.33;;
59649;SDS011;46162;57.568;25.814;2024-03-07T06:04:16;11.32;;;3.08;;
59649;SDS011;46162;57.568;25.814;2024-03-07T06:06:48;12.07;;;2.97;;
59649;SDS011;46162;57.568;25.814;2024-03-07T06:09:26;12.57;;;3.85;;
59649;SDS011;46162;57.568;25.814;2024-03-07T06:12:02;11.63;;;3.65;;
59649;SDS011;46162;57.568;25.814;2024-03-07T06:14:49;10.05;;;3.17;;
59649;SDS011;46162;57.568;25.814;2024-03-07T06:17:21;10.98;;;3.13;;
59649;SDS011;46162;57.568;25.814;2024-03-07T06:19:50;13.13;;;3.92;;
59649;SDS011;46162;57.568;25.814;2024-03-07T06:22:24;10.88;;;3.72;;
59649;SDS011;46162;57.568;25.814;2024-03-07T06:24:57;9.27;;;3.83;;
59649;SDS011;46162;57.568;25.814;2024-03-07T06:27:39;11.30;;;3.17;;
59649;SDS011;46162;57.568;25.814;2024-03-07T06:30:18;11.10;;;3.25;;
59649;SDS011;46162;57.568;25.814;2024-03-07T06:32:47;10.38;;;3.28;;
59649;SDS011;46162;57.568;25.814;2024-03-07T06:35:16;10.73;;;3.60;;
59649;SDS011;46162;57.568;25.814;2024-03-07T06:37:46;11.32;;;3.35;;
59649;SDS011;46162;57.568;25.814;2024-03-07T06:40:17;13.35;;;3.72;;
59649;SDS011;46162;57.568;25.814;2024-03-07T06:42:49;11.07;;;4.40;;
59649;SDS011;46162;57.568;25.814;2024-03-07T06:45:18;11.55;;;4.20;;
59649;SDS011;46162;57.568;25.814;2024-03-07T06:47:47;9.27;;;3.80;;
59649;SDS011;46162;57.568;25.814;2024-03-07T06:50:16;9.65;;;3.88;;
59649;SDS011;46162;57.568;25.814;2024-03-07T06:53:02;10.65;;;3.80;;
59649;SDS011;46162;57.568;25.814;2024-03-07T06:55:36;13.07;;;3.92;;
59649;SDS011;46162;57.568;25.814;2024-03-07T06:58:12;9.32;;;3.60;;
59649;SDS011;46162;57.568;25.814;2024-03-07T07:00:41;9.82;;;3.63;;
59649;SDS011;46162;57.568;25.814;2024-03-07T07:03:12;9.43;;;3.30;;
59649;SDS011;46162;57.568;25.814;2024-03-07T07:05:41;10.27;;;3.60;;
59649;SDS011;46162;57.568;25.814;2024-03-07T07:08:11;10.88;;;4.60;;
59649;SDS011;46162;57.568;25.814;2024-03-07T07:10:42;12.93;;;3.83;;
59649;SDS011;46162;57.568;25.814;2024-03-07T07:13:11;13.57;;;2.92;;
59649;SDS011;46162;57.568;25.814;2024-03-07T07:15:41;9.30;;;3.72;;
59649;SDS011;46162;57.568;25.814;2024-03-07T07:18:10;10.40;;;3.13;;
59649;SDS011;46162;57.568;25.814;2024-03-07T07:20:41;11.50;;;3.08;;
59649;SDS011;46162;57.568;25.814;2024-03-07T07:23:09;11.18;;;3.75;;
59649;SDS011;46162;57.568;25.814;2024-03-07T07:25:41;8.57;;;3.38;;
59649;SDS011;46162;57.568;25.814;2024-03-07T07:28:10;11.63;;;3.55;;
59649;SDS011;46162;57.568;25.814;2024-03-07T07:30:39;10.20;;;3.50;;
59649;SDS011;46162;57.568;25.814;2024-03-07T07:33:11;11.27;;;4.07;;
59649;SDS011;46162;57.568;25.814;2024-03-07T07:35:41;19.30;;;3.38;;
59649;SDS011;46162;57.568;25.814;2024-03-07T07:38:10;9.55;;;3.22;;
59649;SDS011;46162;57.568;25.814;2024-03-07T07:40:44;9.73;;;3.22;;
59649;SDS011;46162;57.568;25.814;2024-03-07T07:43:13;9.18;;;3.35;;
59649;SDS011;46162;57.568;25.814;2024-03-07T07:46:01;11.98;;;2.92;;
59649;SDS011;46162;57.568;25.814;2024-03-07T07:48:31;15.10;;;3.95;;
59649;SDS011;46162;57.568;25.814;2024-03-07T07:51:02;9.93;;;3.33;;
59649;SDS011;46162;57.568;25.814;2024-03-07T07:53:34;8.13;;;3.17;;
59649;SDS011;46162;57.568;25.814;2024-03-07T07:56:04;10.93;;;3.90;;
59649;SDS011;46162;57.568;25.814;2024-03-07T07:58:34;7.15;;;2.97;;
59649;SDS011;46162;57.568;25.814;2024-03-07T08:01:02;8.77;;;3.35;;
59649;SDS011;46162;57.568;25.814;2024-03-07T08:03:33;12.45;;;3.42;;
59649;SDS011;46162;57.568;25.814;2024-03-07T08:06:01;11.88;;;3.28;;
59649;SDS011;46162;57.568;25.814;2024-03-07T08:08:31;11.52;;;2.78;;
59649;SDS011;46162;57.568;25.814;2024-03-07T08:11:00;10.10;;;2.92;;
59649;SDS011;46162;57.568;25.814;2024-03-07T08:13:37;9.30;;;2.90;;
59649;SDS011;46162;57.568;25.814;2024-03-07T08:16:08;14.52;;;2.35;;
59649;SDS011;46162;57.568;25.814;2024-03-07T08:18:41;8.93;;;2.83;;
59649;SDS011;46162;57.568;25.814;2024-03-07T08:21:13;9.75;;;2.70;;
59649;SDS011;46162;57.568;25.814;2024-03-07T08:23:42;9.48;;;2.22;;
59649;SDS011;46162;57.568;25.814;2024-03-07T08:26:10;6.97;;;2.35;;
59649;SDS011;46162;57.568;25.814;2024-03-07T08:28:41;8.60;;;2.92;;
59649;SDS011;46162;57.568;25.814;2024-03-07T08:31:10;10.88;;;2.92;;
59649;SDS011;46162;57.568;25.814;2024-03-07T08:33:39;9.20;;;2.35;;
59649;SDS011;46162;57.568;25.814;2024-03-07T08:36:10;8.77;;;2.85;;
59649;SDS011;46162;57.568;25.814;2024-03-07T08:38:39;13.50;;;2.75;;
59649;SDS011;46162;57.568;25.814;2024-03-07T08:41:16;9.30;;;3.05;;
59649;SDS011;46162;57.568;25.814;2024-03-07T08:43:46;8.43;;;2.70;;
59649;SDS011;46162;57.568;25.814;2024-03-07T08:46:18;7.07;;;2.40;;
59649;SDS011;46162;57.568;25.814;2024-03-07T08:48:56;7.00;;;2.20;;
59649;SDS011;46162;57.568;25.814;2024-03-07T08:51:28;12.32;;;3.28;;
59649;SDS011;46162;57.568;25.814;2024-03-07T08:54:04;8.45;;;3.15;;
59649;SDS011;46162;57.568;25.814;2024-03-07T08:56:38;7.38;;;2.72;;
59649;SDS011;46162;57.568;25.814;2024-03-07T08:59:09;7.70;;;2.38;;
59649;SDS011;46162;57.568;25.814;2024-03-07T09:01:44;7.35;;;2.30;;
59649;SDS011;46162;57.568;25.814;2024-03-07T09:04:24;9.50;;;2.53;;
59649;SDS011;46162;57.568;25.814;2024-03-07T09:06:58;8.20;;;2.85;;
59649;SDS011;46162;57.568;25.814;2024-03-07T09:09:30;7.20;;;2.47;;
59649;SDS011;46162;57.568;25.814;2024-03-07T09:12:00;8.82;;;2.47;;
59649;SDS011;46162;57.568;25.814;2024-03-07T09:14:34;5.72;;;1.90;;
59649;SDS011;46162;57.568;25.814;2024-03-07T09:17:10;7.80;;;1.88;;
59649;SDS011;46162;57.568;25.814;2024-03-07T09:22:10;6.45;;;1.70;;
59649;SDS011;46162;57.568;25.814;2024-03-07T09:24:39;9.82;;;1.52;;
59649;SDS011;46162;57.568;25.814;2024-03-07T09:27:08;9.05;;;1.85;;
59649;SDS011;46162;57.568;25.814;2024-03-07T09:29:38;8.45;;;1.40;;
59649;SDS011;46162;57.568;25.814;2024-03-07T09:32:07;6.45;;;1.20;;
59649;SDS011;46162;57.568;25.814;2024-03-07T09:34:36;4.38;;;1.23;;
59649;SDS011;46162;57.568;25.814;2024-03-07T09:37:05;6.00;;;1.30;;
59649;SDS011;46162;57.568;25.814;2024-03-07T09:39:34;5.75;;;1.25;;
59649;SDS011;46162;57.568;25.814;2024-03-07T09:42:03;6.68;;;1.40;;
59649;SDS011;46162;57.568;25.814;2024-03-07T09:44:37;4.85;;;1.15;;
59649;SDS011;46162;57.568;25.814;2024-03-07T09:47:08;4.15;;;0.98;;
59649;SDS011;46162;57.568;25.814;2024-03-07T09:49:38;5.35;;;1.27;;
59649;SDS011;46162;57.568;25.814;2024-03-07T09:52:07;5.28;;;0.80;;
59649;SDS011;46162;57.568;25.814;2024-03-07T09:54:38;7.20;;;1.20;;
59649;SDS011;46162;57.568;25.814;2024-03-07T09:57:08;7.38;;;0.82;;
59649;SDS011;46162;57.568;25.814;2024-03-07T09:59:41;5.50;;;0.98;;
59649;SDS011;46162;57.568;25.814;2024-03-07T10:02:15;11.07;;;1.75;;
59649;SDS011;46162;57.568;25.814;2024-03-07T10:04:47;6.25;;;1.15;;
59649;SDS011;46162;57.568;25.814;2024-03-07T10:07:19;7.60;;;1.48;;
59649;SDS011;46162;57.568;25.814;2024-03-07T10:09:48;6.20;;;1.17;;
59649;SDS011;46162;57.568;25.814;2024-03-07T10:12:19;8.77;;;1.38;;
59649;SDS011;46162;57.568;25.814;2024-03-07T10:14:49;7.03;;;1.58;;
59649;SDS011;46162;57.568;25.814;2024-03-07T10:17:19;7.03;;;1.17;;
59649;SDS011;46162;57.568;25.814;2024-03-07T10:19:47;6.90;;;1.67;;
59649;SDS011;46162;57.568;25.814;2024-03-07T10:22:17;8.30;;;1.50;;
59649;SDS011;46162;57.568;25.814;2024-03-07T10:24:50;6.05;;;1.23;;
59649;SDS011;46162;57.568;25.814;2024-03-07T10:27:20;5.60;;;1.85;;
59649;SDS011;46162;57.568;25.814;2024-03-07T10:29:51;4.15;;;1.08;;
59649;SDS011;46162;57.568;25.814;2024-03-07T10:32:21;5.22;;;1.00;;
59649;SDS011;46162;57.568;25.814;2024-03-07T10:34:51;5.25;;;1.10;;
59649;SDS011;46162;57.568;25.814;2024-03-07T10:37:20;6.35;;;1.52;;
59649;SDS011;46162;57.568;25.814;2024-03-07T10:39:52;7.13;;;1.15;;
59649;SDS011;46162;57.568;25.814;2024-03-07T10:42:22;5.85;;;1.15;;
59649;SDS011;46162;57.568;25.814;2024-03-07T10:45:04;6.72;;;1.60;;
59649;SDS011;46162;57.568;25.814;2024-03-07T10:47:37;5.90;;;1.20;;
59649;SDS011;46162;57.568;25.814;2024-03-07T10:52:48;6.55;;;1.08;;
59649;SDS011;46162;57.568;25.814;2024-03-07T10:55:31;6.32;;;1.38;;
59649;SDS011;46162;57.568;25.814;2024-03-07T10:58:11;6.53;;;1.17;;
59649;SDS011;46162;57.568;25.814;2024-03-07T11:00:52;7.43;;;1.48;;
59649;SDS011;46162;57.568;25.814;2024-03-07T11:03:25;5.05;;;1.50;;
59649;SDS011;46162;57.568;25.814;2024-03-07T11:05:55;8.68;;;1.60;;
59649;SDS011;46162;57.568;25.814;2024-03-07T11:08:24;4.10;;;1.13;;
59649;SDS011;46162;57.568;25.814;2024-03-07T11:10:54;7.80;;;1.80;;
59649;SDS011;46162;57.568;25.814;2024-03-07T11:13:23;5.55;;;1.60;;
59649;SDS011;46162;57.568;25.814;2024-03-07T11:15:55;6.78;;;1.15;;
59649;SDS011;46162;57.568;25.814;2024-03-07T11:18:27;8.70;;;1.63;;
59649;SDS011;46162;57.568;25.814;2024-03-07T11:20:56;10.88;;;1.70;;
59649;SDS011;46162;57.568;25.814;2024-03-07T11:23:25;10.43;;;1.75;;
59649;SDS011;46162;57.568;25.814;2024-03-07T11:26:01;8.23;;;1.85;;
59649;SDS011;46162;57.568;25.814;2024-03-07T11:28:35;7.20;;;1.73;;
59649;SDS011;46162;57.568;25.814;2024-03-07T11:31:12;6.90;;;1.60;;
59649;SDS011;46162;57.568;25.814;2024-03-07T11:33:41;6.13;;;1.95;;
59649;SDS011;46162;57.568;25.814;2024-03-07T11:36:11;6.53;;;1.63;;
59649;SDS011;46162;57.568;25.814;2024-03-07T11:38:44;5.95;;;1.80;;
59649;SDS011;46162;57.568;25.814;2024-03-07T11:41:14;7.80;;;1.70;;
59649;SDS011;46162;57.568;25.814;2024-03-07T11:43:47;6.40;;;1.60;;
59649;SDS011;46162;57.568;25.814;2024-03-07T11:46:18;7.13;;;1.70;;
59649;SDS011;46162;57.568;25.814;2024-03-07T11:48:48;8.35;;;2.42;;
59649;SDS011;46162;57.568;25.814;2024-03-07T11:51:17;5.63;;;1.33;;
59649;SDS011;46162;57.568;25.814;2024-03-07T11:53:52;6.82;;;1.77;;
59649;SDS011;46162;57.568;25.814;2024-03-07T11:56:23;7.30;;;1.75;;
59649;SDS011;46162;57.568;25.814;2024-03-07T11:58:52;10.93;;;2.05;;
59649;SDS011;46162;57.568;25.814;2024-03-07T12:01:23;5.40;;;1.42;;
59649;SDS011;46162;57.568;25.814;2024-03-07T12:03:56;8.38;;;2.17;;
59649;SDS011;46162;57.568;25.814;2024-03-07T12:06:27;5.05;;;1.67;;
59649;SDS011;46162;57.568;25.814;2024-03-07T12:08:56;5.85;;;1.83;;
59649;SDS011;46162;57.568;25.814;2024-03-07T12:11:26;7.40;;;1.98;;
59649;SDS011;46162;57.568;25.814;2024-03-07T12:13:55;7.68;;;1.60;;
59649;SDS011;46162;57.568;25.814;2024-03-07T12:16:25;7.88;;;1.63;;
59649;SDS011;46162;57.568;25.814;2024-03-07T12:18:56;7.25;;;2.03;;
59649;SDS011;46162;57.568;25.814;2024-03-07T12:21:25;7.03;;;1.85;;
59649;SDS011;46162;57.568;25.814;2024-03-07T12:23:54;6.85;;;1.75;;
59649;SDS011;46162;57.568;25.814;2024-03-07T12:26:23;7.65;;;2.00;;
59649;SDS011;46162;57.568;25.814;2024-03-07T12:28:52;8.68;;;1.48;;
59649;SDS011;46162;57.568;25.814;2024-03-07T12:31:21;7.28;;;2.05;;
59649;SDS011;46162;57.568;25.814;2024-03-07T12:33:53;7.70;;;1.95;;
59649;SDS011;46162;57.568;25.814;2024-03-07T12:36:22;8.85;;;1.58;;
59649;SDS011;46162;57.568;25.814;2024-03-07T12:39:01;6.63;;;1.38;;
59649;SDS011;46162;57.568;25.814;2024-03-07T12:41:36;5.55;;;1.73;;
59649;SDS011;46162;57.568;25.814;2024-03-07T12:44:06;5.07;;;1.13;;
59649;SDS011;46162;57.568;25.814;2024-03-07T12:46:40;6.90;;;1.20;;
59649;SDS011;46162;57.568;25.814;2024-03-07T12:49:14;9.98;;;2.05;;
59649;SDS011;46162;57.568;25.814;2024-03-07T12:51:43;4.00;;;1.02;;
59649;SDS011;46162;57.568;25.814;2024-03-07T12:54:12;5.15;;;1.38;;
59649;SDS011;46162;57.568;25.814;2024-03-07T12:56:41;7.40;;;2.15;;
59649;SDS011;46162;57.568;25.814;2024-03-07T12:59:12;6.15;;;1.42;;
59649;SDS011;46162;57.568;25.814;2024-03-07T13:01:41;7.78;;;1.70;;
59649;SDS011;46162;57.568;25.814;2024-03-07T13:04:12;7.88;;;1.30;;
59649;SDS011;46162;57.568;25.814;2024-03-07T13:06:43;8.00;;;1.90;;
59649;SDS011;46162;57.568;25.814;2024-03-07T13:09:14;10.15;;;2.30;;
59649;SDS011;46162;57.568;25.814;2024-03-07T13:11:43;5.25;;;1.30;;
59649;SDS011;46162;57.568;25.814;2024-03-07T13:14:15;6.90;;;1.15;;
59649;SDS011;46162;57.568;25.814;2024-03-07T13:16:43;7.15;;;1.90;;
59649;SDS011;46162;57.568;25.814;2024-03-07T13:19:14;6.75;;;1.10;;
59649;SDS011;46162;57.568;25.814;2024-03-07T13:21:47;4.30;;;1.13;;
59649;SDS011;46162;57.568;25.814;2024-03-07T13:24:16;5.13;;;1.08;;
59649;SDS011;46162;57.568;25.814;2024-03-07T13:26:45;3.70;;;1.02;;
59649;SDS011;46162;57.568;25.814;2024-03-07T13:29:15;5.60;;;1.60;;
59649;SDS011;46162;57.568;25.814;2024-03-07T13:31:50;9.30;;;1.45;;
59649;SDS011;46162;57.568;25.814;2024-03-07T13:34:24;7.50;;;1.67;;
59649;SDS011;46162;57.568;25.814;2024-03-07T13:36:53;5.57;;;1.33;;
59649;SDS011;46162;57.568;25.814;2024-03-07T13:39:25;7.13;;;1.67;;
59649;SDS011;46162;57.568;25.814;2024-03-07T13:41:53;5.30;;;1.77;;
59649;SDS011;46162;57.568;25.814;2024-03-07T13:44:22;7.22;;;1.50;;
59649;SDS011;46162;57.568;25.814;2024-03-07T13:46:52;7.13;;;1.63;;
59649;SDS011;46162;57.568;25.814;2024-03-07T13:49:21;8.40;;;1.50;;
59649;SDS011;46162;57.568;25.814;2024-03-07T13:51:52;5.90;;;1.50;;
59649;SDS011;46162;57.568;25.814;2024-03-07T13:54:27;6.25;;;1.30;;
59649;SDS011;46162;57.568;25.814;2024-03-07T13:57:08;6.50;;;1.35;;
59649;SDS011;46162;57.568;25.814;2024-03-07T14:00:04;5.03;;;0.93;;
59649;SDS011;46162;57.568;25.814;2024-03-07T14:06:02;5.90;;;1.20;;
59649;SDS011;46162;57.568;25.814;2024-03-07T14:08:57;7.00;;;1.35;;
59649;SDS011;46162;57.568;25.814;2024-03-07T14:21:23;4.93;;;1.05;;
59649;SDS011;46162;57.568;25.814;2024-03-07T14:27:27;8.43;;;2.42;;
59649;SDS011;46162;57.568;25.814;2024-03-07T14:30:05;7.05;;;1.38;;
59649;SDS011;46162;57.568;25.814;2024-03-07T14:35:25;7.40;;;0.95;;
59649;SDS011;46162;57.568;25.814;2024-03-07T14:38:02;5.20;;;0.90;;
59649;SDS011;46162;57.568;25.814;2024-03-07T14:40:34;4.55;;;1.00;;
59649;SDS011;46162;57.568;25.814;2024-03-07T14:43:04;5.38;;;1.15;;
59649;SDS011;46162;57.568;25.814;2024-03-07T14:45:35;7.78;;;1.30;;
59649;SDS011;46162;57.568;25.814;2024-03-07T14:48:07;6.40;;;1.20;;
59649;SDS011;46162;57.568;25.814;2024-03-07T14:50:37;5.55;;;1.42;;
59649;SDS011;46162;57.568;25.814;2024-03-07T14:53:09;4.45;;;1.10;;
59649;SDS011;46162;57.568;25.814;2024-03-07T14:55:40;7.77;;;0.90;;
59649;SDS011;46162;57.568;25.814;2024-03-07T14:58:12;4.93;;;0.93;;
59649;SDS011;46162;57.568;25.814;2024-03-07T15:00:43;4.35;;;1.27;;
59649;SDS011;46162;57.568;25.814;2024-03-07T15:03:24;4.40;;;1.02;;
59649;SDS011;46162;57.568;25.814;2024-03-07T15:05:56;4.88;;;1.50;;
59649;SDS011;46162;57.568;25.814;2024-03-07T15:08:26;8.68;;;2.50;;
59649;SDS011;46162;57.568;25.814;2024-03-07T15:10:57;7.60;;;2.17;;
59649;SDS011;46162;57.568;25.814;2024-03-07T15:13:37;6.03;;;1.67;;
59649;SDS011;46162;57.568;25.814;2024-03-07T15:16:06;6.60;;;1.60;;
59649;SDS011;46162;57.568;25.814;2024-03-07T15:18:43;6.22;;;1.80;;
59649;SDS011;46162;57.568;25.814;2024-03-07T15:21:12;6.28;;;1.48;;
59649;SDS011;46162;57.568;25.814;2024-03-07T15:23:46;5.25;;;1.45;;
59649;SDS011;46162;57.568;25.814;2024-03-07T15:26:15;5.85;;;1.23;;
59649;SDS011;46162;57.568;25.814;2024-03-07T15:28:47;5.33;;;1.20;;
59649;SDS011;46162;57.568;25.814;2024-03-07T15:31:15;4.95;;;1.02;;
59649;SDS011;46162;57.568;25.814;2024-03-07T15:33:46;4.32;;;1.27;;